Onde está Castelo de Alenquer en Portugal?

 

Castelo de Alenquer está situado na região Lisboa em Portugal!

Buscar o nome de uma cidade:

Castro de Fuentidueña, Castañoso, Castillejo de Mesleón, Castro, Castellgalí

Aqui você vai encontrar a localização de Castelo de Alenquer em um mapa.
Para ver como ele atualmente parece, abaixo estão algumas fotos da região, com webcams online.
Você também pode encontrar a distância para as principais cidades da região e de cidades do resto do Portugal.

Todos os lugares do mundo chamado .


Onde está Castelo de Alenquer no mapa?




Webcams perto Castelo de Alenquer

Benavente › North-East: AIrport, METAR: BENAV 180005Z 36004KT 17/14 Q1015.


Benavente › North-East: AIrport, METAR: BENAV 180005Z 36004KT 17/14 Q1015 - Dia
Actual
Benavente › North-East: AIrport, METAR: BENAV 180005Z 36004KT 17/14 Q1015 - Actual

Lisbon › South: Rua Vasco da Gama.


Lisbon › South: Rua Vasco da Gama - Dia
Actual
Lisbon › South: Rua Vasco da Gama - Actual

Lisbon › North: Ponte Vasco da Gama.


Lisbon › North: Ponte Vasco da Gama - Dia
Actual
Lisbon › North: Ponte Vasco da Gama - Actual

Webcams provided by webcams.travel


Distâncias

Onde está Castelo de Alenquer em relação a outros lugares?

Top 10 cidades em Lisboa e distância de Castelo de Alenquer.

Cidade#Populaçãokmmilhas
Lisbon15177984025
Amadora21788563924
Queluz31033984025
Loures4662302918
Rio de Mouro5546954226
Odivelas6546233421
São Domingos de Rana7467174830
Cascais8364365333
Alcabideche9333155031
Póvoa de Santa Iria10289002314

Top 10 cidades em Portugal e distância de Castelo de Alenquer.

Cidade # Populaçãokmmilhas
Lisbon15177984025
Porto2249630235146
Amadora31788563924
Braga4121393282175
Setúbal51171096037
Coimbra610658013785
Queluz71033984025
Funchal8980411007626
Vila Nova de Gaia970810233145
Loures10662302918



Info

Estatística e Geografia

Portugal é composta de 15299 cidades em 20 regiões.

A região de Lisboa tem 1032 cidades.

Onde está Castelo de Alenquer en Portugal?